WMKP/PEN METAR and TAF weather

Enter ICAO airport designator
Station Type Date Time Source
WMKP METAR 2020/07/11 20:00 UTC NOAA

WMKP 112000Z 05004KT 8000 FEW025 26/24 Q1009 NOSIG


Station Type Date Time Source
WMKP Decoded METAR 2020/07/11 20:00 UTC NOAA

Penang / Bayan Lepas, Malaysia (WMKP) 05-18N 100-16E 4M
Jul 11, 2020 - 04:00 PM EDT / 2020.07.11 2000 UTC
Wind: from the NE (050 degrees) at 5 MPH (4 KT):0
Visibility: 4 mile(s):0
Sky conditions: mostly clear
Temperature: 78 F (26 C)
Dew Point: 75 F (24 C)
Relative Humidity: 88%
Pressure (altimeter): 29.80 in. Hg (1009 hPa)
ob: WMKP 112000Z 05004KT 8000 FEW025 26/24 Q1009 NOSIG
cycle: 20

Station Type Date Time Source
WMKP TAF 2020/07/11 18:36 UTC NOAA

TAF
AMD TAF
AMD WMKP 111818Z 1118/1218 VRB03KT 8000 FEW017CB
TEMPO 1118/1200 5000 TSRA FEW010 FEW017CB
BECMG 1204/1206 24006KT 9999 FEW020 PROB30
TEMPO 1208/1212 7000 -TSRA FEW010 FEW017CB
BECMG 1211/1213 VRB03KT 9000 FEW025

Example: see airport list